Time;durP1;ratioP1;P1;durP2;ratioP2;P2;SDS_P1;SDS_P2;PMS_P1;PMS_P2;Temp;Humidity;BMP_temperature;BMP_pressure;BME280_temperature;BME280_humidity;BME280_pressure;Samples;Min_cycle;Max_cycle;Signal;HPM_P1;HPM_P2
2022/10/26 00:00:29;;;;;;;15.82;13.05;;;10.90;99.90;;;;;;5044836;28;20572;-77
2022/10/26 00:02:55;;;;;;;16.02;12.52;;;10.90;99.90;;;;;;5032495;28;20052;-79
2022/10/26 00:05:22;;;;;;;14.40;11.95;;;10.90;99.90;;;;;;5048370;28;20052;-79
2022/10/26 00:07:49;;;;;;;16.30;12.52;;;10.90;99.90;;;;;;5045926;28;21293;-79
2022/10/26 00:10:15;;;;;;;15.85;12.38;;;10.90;99.90;;;;;;5049490;28;20049;-79
2022/10/26 00:12:41;;;;;;;16.73;12.50;;;10.90;99.90;;;;;;5028458;28;20084;-77
2022/10/26 00:15:07;;;;;;;15.25;12.57;;;10.90;99.90;;;;;;5047816;28;20048;-79
2022/10/26 00:17:33;;;;;;;14.70;13.07;;;10.90;99.90;;;;;;5044939;28;20052;-80
2022/10/26 00:19:59;;;;;;;17.58;13.07;;;11.00;99.90;;;;;;5032103;28;20045;-78
2022/10/26 00:22:26;;;;;;;16.98;13.07;;;10.90;99.90;;;;;;5046740;28;20044;-81
2022/10/26 00:24:51;;;;;;;15.97;13.33;;;10.90;99.90;;;;;;5045206;28;20051;-77
2022/10/26 00:27:17;;;;;;;17.98;13.75;;;10.90;99.90;;;;;;5049014;28;20048;-78
2022/10/26 00:29:43;;;;;;;17.23;13.82;;;10.90;99.90;;;;;;5051196;28;20040;-76
2022/10/26 00:32:09;;;;;;;17.42;14.07;;;11.00;99.90;;;;;;5045803;28;20044;-77
2022/10/26 00:34:35;;;;;;;16.23;14.00;;;10.90;99.90;;;;;;5047992;28;20040;-77
2022/10/26 00:37:00;;;;;;;16.02;13.90;;;11.00;99.90;;;;;;5035142;28;20887;-77
2022/10/26 00:39:26;;;;;;;17.45;14.70;;;10.90;99.90;;;;;;5046801;28;20139;-78
2022/10/26 00:41:52;;;;;;;17.45;13.73;;;10.90;99.90;;;;;;5032022;28;20054;-75
2022/10/26 00:44:45;;;;;;;19.13;13.90;;;10.90;99.90;;;;;;5044422;28;20063;-79
2022/10/26 00:47:20;;;;;;;17.58;13.50;;;10.90;99.90;;;;;;5029230;28;20048;-77
2022/10/26 00:49:48;;;;;;;18.65;14.18;;;10.90;99.90;;;;;;5048187;28;20102;-78
2022/10/26 00:52:15;;;;;;;17.95;14.35;;;10.80;99.90;;;;;;5046251;28;20032;-79
2022/10/26 00:54:42;;;;;;;16.65;13.68;;;10.80;99.90;;;;;;5046245;28;20037;-76
2022/10/26 00:57:11;;;;;;;16.85;14.98;;;10.70;99.90;;;;;;5046875;28;20040;-76
2022/10/26 00:59:36;;;;;;;17.30;14.32;;;10.70;99.90;;;;;;5047770;28;20664;-77
2022/10/26 01:02:02;;;;;;;17.70;15.70;;;10.70;99.90;;;;;;5047026;28;20044;-76
2022/10/26 01:04:28;;;;;;;18.00;15.07;;;10.70;99.90;;;;;;5026341;28;20471;-78
2022/10/26 01:06:54;;;;;;;16.63;13.93;;;10.70;99.90;;;;;;5047461;28;20033;-77
2022/10/26 01:09:21;;;;;;;15.55;12.98;;;10.70;99.90;;;;;;5045825;28;20427;-77
2022/10/26 01:11:47;;;;;;;18.27;14.13;;;10.70;99.90;;;;;;5022119;28;20139;-76
2022/10/26 01:14:15;;;;;;;18.95;13.73;;;10.70;99.90;;;;;;5049116;28;20039;-76
2022/10/26 01:16:52;;;;;;;18.08;14.30;;;10.50;99.90;;;;;;5045402;28;20057;-76
2022/10/26 01:19:50;;;;;;;20.02;14.57;;;10.50;99.90;;;;;;5028325;28;20384;-76
2022/10/26 01:22:29;;;;;;;16.05;13.38;;;10.50;99.90;;;;;;5049129;28;20056;-76
2022/10/26 01:25:16;;;;;;;17.67;13.55;;;10.50;99.90;;;;;;5045998;28;21933;-76
2022/10/26 01:27:48;;;;;;;17.20;13.75;;;10.50;99.90;;;;;;5043941;28;20060;-78
2022/10/26 01:30:17;;;;;;;16.33;13.48;;;10.50;99.90;;;;;;5043539;28;20055;-76
2022/10/26 01:33:02;;;;;;;15.00;13.40;;;10.50;99.90;;;;;;5041876;28;20491;-79
2022/10/26 01:35:40;;;;;;;18.88;14.73;;;10.60;99.90;;;;;;5025767;28;20101;-77
2022/10/26 01:38:24;;;;;;;15.75;13.35;;;10.60;99.90;;;;;;5046818;28;20160;-77
2022/10/26 01:41:10;;;;;;;16.27;13.13;;;10.50;99.90;;;;;;5043572;28;20083;-76
2022/10/26 01:43:41;;;;;;;22.23;14.63;;;10.60;99.90;;;;;;5024515;28;20052;-78
2022/10/26 01:46:08;;;;;;;17.30;14.30;;;10.50;99.90;;;;;;5023942;28;20603;-77
2022/10/26 01:48:35;;;;;;;17.45;15.10;;;10.50;99.90;;;;;;5043904;28;20056;-76
2022/10/26 01:51:03;;;;;;;18.52;15.45;;;10.50;99.90;;;;;;5045169;28;20052;-77
2022/10/26 01:53:29;;;;;;;15.68;13.90;;;10.50;99.90;;;;;;5042124;28;20053;-77
2022/10/26 01:55:55;;;;;;;16.75;15.00;;;10.50;99.90;;;;;;5046230;28;20040;-78
2022/10/26 01:58:42;;;;;;;18.83;15.70;;;10.50;99.90;;;;;;5043622;28;20036;-76
2022/10/26 02:01:44;;;;;;;19.05;15.63;;;10.50;99.90;;;;;;5048576;28;20055;-77
2022/10/26 02:04:47;;;;;;;18.60;15.77;;;10.50;99.90;;;;;;5047986;28;20140;-77
2022/10/26 02:07:15;;;;;;;16.90;15.10;;;10.50;99.90;;;;;;5029238;28;20288;-78
2022/10/26 02:10:09;;;;;;;17.15;15.32;;;10.50;99.90;;;;;;5029554;28;20033;-77
2022/10/26 02:12:38;;;;;;;19.27;16.10;;;10.50;99.90;;;;;;5025764;28;20139;-79
2022/10/26 02:15:19;;;;;;;18.17;15.93;;;10.50;99.90;;;;;;5026562;28;20083;-76
2022/10/26 02:17:58;;;;;;;18.58;16.50;;;10.50;99.90;;;;;;5029139;28;20049;-75
2022/10/26 02:20:48;;;;;;;22.45;17.20;;;10.50;99.90;;;;;;5051266;28;20049;-76
2022/10/26 02:23:15;;;;;;;19.15;16.98;;;10.50;99.90;;;;;;5049217;28;20135;-78
2022/10/26 02:25:47;;;;;;;20.27;16.35;;;10.40;99.90;;;;;;5048834;28;20047;-77
2022/10/26 02:28:18;;;;;;;19.98;17.45;;;10.50;99.90;;;;;;5048140;28;20048;-75
2022/10/26 02:30:47;;;;;;;21.50;17.70;;;10.40;99.90;;;;;;5046635;28;20125;-78
2022/10/26 02:33:14;;;;;;;20.58;18.38;;;10.40;99.90;;;;;;5052510;28;20044;-77
2022/10/26 02:35:42;;;;;;;23.10;18.33;;;10.40;99.90;;;;;;5047562;28;20134;-76
2022/10/26 02:38:10;;;;;;;23.05;18.08;;;10.50;99.90;;;;;;5049303;28;20353;-76
2022/10/26 02:40:37;;;;;;;24.13;18.92;;;10.50;99.90;;;;;;5031845;28;20048;-78
2022/10/26 02:43:12;;;;;;;21.40;18.67;;;10.50;99.90;;;;;;5024785;28;20091;-78
2022/10/26 02:45:55;;;;;;;22.38;20.00;;;10.50;99.90;;;;;;5031822;28;20063;-81
2022/10/26 02:48:22;;;;;;;21.60;19.40;;;10.50;99.90;;;;;;5046022;28;20037;-78
2022/10/26 02:50:53;;;;;;;23.23;19.42;;;10.50;99.90;;;;;;5027776;28;20048;-77
2022/10/26 02:53:44;;;;;;;24.33;19.48;;;10.50;99.90;;;;;;5031427;28;20037;-78
2022/10/26 02:56:20;;;;;;;22.75;20.33;;;10.50;99.90;;;;;;5048155;28;20049;-78
2022/10/26 02:58:51;;;;;;;22.75;20.35;;;10.60;99.90;;;;;;5051175;28;20052;-78
2022/10/26 03:01:17;;;;;;;22.75;19.63;;;10.50;99.90;;;;;;5050296;28;20123;-78
2022/10/26 03:03:43;;;;;;;24.02;20.40;;;10.50;99.90;;;;;;5027603;28;20045;-78
2022/10/26 03:06:08;;;;;;;22.40;19.50;;;10.50;99.90;;;;;;5051045;28;20047;-80
2022/10/26 03:08:34;;;;;;;23.73;20.33;;;10.60;99.90;;;;;;5029677;28;20159;-78
2022/10/26 03:11:00;;;;;;;22.48;19.90;;;10.60;99.90;;;;;;5048951;28;20052;-77
2022/10/26 03:13:25;;;;;;;22.83;20.30;;;10.60;99.90;;;;;;5045190;28;20090;-78
2022/10/26 03:15:56;;;;;;;23.42;20.33;;;10.60;99.90;;;;;;5022781;28;20052;-79
2022/10/26 03:18:22;;;;;;;25.80;20.05;;;10.60;99.90;;;;;;5026200;28;20045;-80
2022/10/26 03:20:48;;;;;;;21.85;19.52;;;10.60;99.90;;;;;;5024721;28;20055;-79
2022/10/26 03:23:14;;;;;;;22.73;20.15;;;10.60;99.90;;;;;;5029196;28;20037;-79
2022/10/26 03:25:39;;;;;;;24.27;19.80;;;10.50;99.90;;;;;;5008770;28;20140;-77
2022/10/26 03:28:06;;;;;;;22.83;19.88;;;10.60;99.90;;;;;;5024931;28;20037;-77
2022/10/26 03:30:31;;;;;;;24.60;20.80;;;10.60;99.90;;;;;;5027846;28;20045;-78
2022/10/26 03:32:57;;;;;;;23.65;19.70;;;10.60;99.90;;;;;;5029224;28;20096;-78
2022/10/26 03:35:23;;;;;;;23.63;20.92;;;10.50;99.90;;;;;;5026662;28;20065;-78
2022/10/26 03:37:49;;;;;;;25.42;20.88;;;10.60;99.90;;;;;;5005402;28;20056;-77
2022/10/26 03:40:15;;;;;;;21.38;19.08;;;10.60;99.90;;;;;;5030429;28;20045;-77
2022/10/26 03:42:40;;;;;;;21.63;19.13;;;10.50;99.90;;;;;;5009505;28;20041;-77
2022/10/26 03:45:07;;;;;;;22.90;19.10;;;10.60;99.90;;;;;;5026055;28;20050;-78
2022/10/26 03:47:32;;;;;;;22.98;19.30;;;10.60;99.90;;;;;;5029447;28;20075;-79
2022/10/26 03:49:58;;;;;;;23.63;19.15;;;10.60;99.90;;;;;;5007879;28;20408;-77
2022/10/26 03:52:24;;;;;;;21.65;18.60;;;10.60;99.90;;;;;;5027260;28;20865;-77
2022/10/26 03:54:50;;;;;;;23.08;18.40;;;10.60;99.90;;;;;;5030460;28;20168;-79
2022/10/26 03:57:17;;;;;;;21.30;19.07;;;10.60;99.90;;;;;;5007904;28;20055;-79
2022/10/26 03:59:42;;;;;;;21.35;18.00;;;10.60;99.90;;;;;;5028508;28;20045;-78
2022/10/26 04:02:08;;;;;;;21.30;19.00;;;10.60;99.90;;;;;;5026118;28;20041;-80
2022/10/26 04:04:34;;;;;;;24.48;18.67;;;10.60;99.90;;;;;;5026003;28;20791;-78
2022/10/26 04:06:59;;;;;;;21.23;18.95;;;10.60;99.90;;;;;;5010363;28;20049;-80
2022/10/26 04:09:25;;;;;;;22.92;18.02;;;10.60;99.90;;;;;;5028317;28;20451;-78
2022/10/26 04:11:50;;;;;;;23.40;18.15;;;10.60;99.90;;;;;;5023413;28;20051;-78
2022/10/26 04:14:16;;;;;;;20.88;16.77;;;10.60;99.90;;;;;;5030045;28;20043;-79
2022/10/26 04:16:42;;;;;;;19.35;17.35;;;10.60;99.90;;;;;;5004885;28;20091;-77
2022/10/26 04:19:08;;;;;;;22.73;18.00;;;10.60;99.90;;;;;;5029819;28;20152;-79
2022/10/26 04:21:34;;;;;;;20.98;15.85;;;10.60;99.90;;;;;;5022107;28;20130;-78
2022/10/26 04:24:00;;;;;;;20.33;16.73;;;10.60;99.90;;;;;;5029726;28;20037;-77
2022/10/26 04:26:26;;;;;;;19.83;16.83;;;10.50;99.90;;;;;;5010750;28;20136;-77
2022/10/26 04:28:52;;;;;;;17.95;15.40;;;10.60;99.90;;;;;;5006811;28;20674;-79
2022/10/26 04:31:18;;;;;;;20.70;15.52;;;10.60;99.90;;;;;;5028246;28;20055;-78
2022/10/26 04:33:43;;;;;;;20.00;15.68;;;10.60;99.90;;;;;;5017258;28;20059;-77
2022/10/26 04:36:09;;;;;;;20.55;16.20;;;10.60;99.90;;;;;;5028634;28;20041;-78
2022/10/26 04:38:35;;;;;;;19.10;15.77;;;10.60;99.90;;;;;;5024859;28;20052;-80
2022/10/26 04:41:01;;;;;;;20.13;14.68;;;10.60;99.90;;;;;;5025483;28;20068;-78
2022/10/26 04:43:26;;;;;;;18.02;15.40;;;10.60;99.90;;;;;;5025199;28;20135;-77
2022/10/26 04:45:56;;;;;;;21.20;15.48;;;10.60;99.90;;;;;;5010931;28;20063;-77
2022/10/26 04:48:22;;;;;;;16.80;14.73;;;10.60;99.90;;;;;;5023225;28;20052;-77
2022/10/26 04:50:48;;;;;;;18.35;15.27;;;10.60;99.90;;;;;;5026332;28;20029;-76
2022/10/26 04:53:14;;;;;;;20.63;15.32;;;10.60;99.90;;;;;;5011986;28;20075;-78
2022/10/26 04:55:39;;;;;;;21.65;16.63;;;10.60;99.90;;;;;;5026354;28;20048;-78
2022/10/26 04:58:05;;;;;;;20.02;15.73;;;10.60;99.90;;;;;;5026883;28;20036;-78
2022/10/26 05:00:32;;;;;;;18.42;15.70;;;10.60;99.90;;;;;;5028746;28;20048;-77
2022/10/26 05:03:02;;;;;;;18.08;13.82;;;10.70;99.90;;;;;;5020551;28;20037;-78
2022/10/26 05:05:30;;;;;;;17.85;14.73;;;10.70;99.90;;;;;;5027238;28;20083;-79
2022/10/26 05:07:56;;;;;;;20.25;15.48;;;10.70;99.90;;;;;;5007657;28;20519;-79
2022/10/26 05:10:22;;;;;;;20.40;14.85;;;10.70;99.90;;;;;;5028889;28;20657;-79
2022/10/26 05:12:54;;;;;;;20.95;15.52;;;10.70;99.90;;;;;;5026370;28;20049;-80
2022/10/26 05:15:20;;;;;;;18.17;14.52;;;10.80;99.90;;;;;;5027238;28;20150;-77
2022/10/26 05:17:46;;;;;;;16.70;13.70;;;10.80;99.90;;;;;;5030439;28;20044;-80
2022/10/26 05:20:13;;;;;;;19.52;14.25;;;10.80;99.90;;;;;;5047075;28;20049;-79
2022/10/26 05:22:41;;;;;;;17.83;13.43;;;10.80;99.90;;;;;;5039614;28;21450;-79
2022/10/26 05:25:07;;;;;;;18.60;14.32;;;10.80;99.90;;;;;;5047497;28;20546;-78
2022/10/26 05:27:33;;;;;;;18.55;13.85;;;10.80;99.90;;;;;;5027592;28;20040;-78
2022/10/26 05:29:58;;;;;;;17.20;13.23;;;10.80;99.90;;;;;;5043673;28;20406;-77
2022/10/26 05:32:24;;;;;;;16.02;13.30;;;10.80;99.90;;;;;;5050408;28;20044;-77
2022/10/26 05:34:50;;;;;;;16.17;13.43;;;10.80;99.90;;;;;;5055867;28;20043;-79
2022/10/26 05:37:15;;;;;;;16.90;13.07;;;10.80;99.90;;;;;;5045701;28;20543;-82
2022/10/26 05:39:42;;;;;;;17.33;13.75;;;10.80;99.90;;;;;;5052349;28;20041;-78
2022/10/26 05:42:08;;;;;;;15.43;13.10;;;10.80;99.90;;;;;;5062811;28;20040;-78
2022/10/26 05:44:33;;;;;;;17.98;13.43;;;10.80;99.90;;;;;;5061822;28;20051;-77
2022/10/26 05:47:02;;;;;;;19.02;14.25;;;10.80;99.90;;;;;;5065627;28;20044;-78
2022/10/26 05:49:31;;;;;;;14.85;13.05;;;10.80;99.90;;;;;;5064382;28;20036;-77
2022/10/26 05:51:56;;;;;;;16.05;13.85;;;10.80;99.90;;;;;;5065446;28;20033;-77
2022/10/26 05:54:25;;;;;;;16.25;13.55;;;10.80;99.90;;;;;;5048751;28;20772;-77
2022/10/26 05:56:51;;;;;;;15.48;12.20;;;10.80;99.90;;;;;;5050456;28;20128;-81
2022/10/26 05:59:17;;;;;;;15.73;13.63;;;10.80;99.90;;;;;;5048862;28;20170;-77
2022/10/26 06:01:48;;;;;;;18.58;13.38;;;10.90;99.90;;;;;;5062459;28;20131;-78
2022/10/26 06:04:40;;;;;;;16.75;13.45;;;10.90;99.90;;;;;;5046921;28;20602;-79
2022/10/26 06:07:11;;;;;;;15.98;13.20;;;10.90;99.90;;;;;;5061682;28;20630;-77
2022/10/26 06:09:41;;;;;;;17.63;12.80;;;10.90;99.90;;;;;;5063317;28;20069;-80
2022/10/26 06:12:08;;;;;;;14.97;12.67;;;10.90;99.90;;;;;;5065302;28;20803;-78
2022/10/26 06:14:35;;;;;;;16.45;12.38;;;10.90;99.90;;;;;;5068115;28;20040;-77
2022/10/26 06:17:28;;;;;;;15.90;12.73;;;10.90;99.90;;;;;;5067739;28;20514;-78
2022/10/26 06:20:24;;;;;;;20.88;13.00;;;11.00;99.90;;;;;;5049659;28;20052;-78
2022/10/26 06:23:22;;;;;;;15.02;12.18;;;11.00;99.90;;;;;;5065645;28;20644;-77
2022/10/26 06:25:50;;;;;;;19.10;12.20;;;11.00;99.90;;;;;;5045902;28;20421;-79
2022/10/26 06:29:01;;;;;;;18.70;13.02;;;10.90;99.90;;;;;;5049808;28;20194;-78
2022/10/26 06:31:27;;;;;;;14.18;11.48;;;10.90;99.90;;;;;;5059441;28;20052;-78
2022/10/26 06:34:01;;;;;;;17.63;11.52;;;10.90;99.90;;;;;;5065740;28;20048;-77
2022/10/26 06:36:30;;;;;;;15.75;11.18;;;11.00;99.90;;;;;;5067833;28;20122;-77
2022/10/26 06:39:09;;;;;;;13.95;10.20;;;11.00;99.90;;;;;;5064899;28;20119;-78
2022/10/26 06:41:38;;;;;;;15.27;10.80;;;11.00;99.90;;;;;;5061318;28;20828;-78
2022/10/26 06:44:06;;;;;;;12.50;9.27;;;11.00;99.90;;;;;;5067872;28;20044;-77
2022/10/26 06:46:58;;;;;;;14.85;9.75;;;11.00;99.90;;;;;;5066584;28;20044;-79
2022/10/26 06:49:41;;;;;;;11.68;9.15;;;11.00;99.90;;;;;;5063241;28;20044;-78
2022/10/26 06:52:38;;;;;;;13.18;9.35;;;11.10;99.90;;;;;;5049565;28;20052;-78
2022/10/26 06:55:13;;;;;;;10.88;8.70;;;11.00;99.90;;;;;;5065174;28;20075;-79
2022/10/26 06:57:45;;;;;;;15.57;9.45;;;11.00;99.90;;;;;;5049067;28;20544;-78
2022/10/26 07:00:21;;;;;;;12.93;8.68;;;11.10;99.90;;;;;;5049247;28;20040;-78
2022/10/26 07:02:53;;;;;;;13.15;8.45;;;11.10;99.90;;;;;;5064381;28;20104;-77
2022/10/26 07:05:19;;;;;;;13.95;8.70;;;11.10;99.90;;;;;;5045861;28;20052;-83
2022/10/26 07:07:46;;;;;;;9.90;8.50;;;11.10;99.90;;;;;;5062979;28;20040;-79
2022/10/26 07:10:13;;;;;;;14.15;8.40;;;11.10;99.90;;;;;;5047004;28;20044;-85
2022/10/26 07:12:39;;;;;;;13.95;8.52;;;11.10;99.90;;;;;;5062713;28;20049;-84
2022/10/26 07:15:07;;;;;;;12.20;9.10;;;11.20;99.90;;;;;;5044499;28;20036;-83
2022/10/26 07:17:46;;;;;;;;;;;11.20;99.90;;;;;;5050414;28;20106;-84
2022/10/26 07:20:12;;;;;;;10.90;8.75;;;11.20;99.90;;;;;;5066535;28;20022;-84
2022/10/26 07:22:38;;;;;;;12.77;9.00;;;11.20;99.90;;;;;;5059680;28;20044;-86
2022/10/26 07:25:05;;;;;;;13.82;9.32;;;11.20;99.90;;;;;;5051474;28;20438;-84
2022/10/26 07:27:31;;;;;;;14.07;9.40;;;11.20;99.90;;;;;;5067556;28;20041;-85
2022/10/26 07:29:57;;;;;;;14.75;9.80;;;11.30;99.90;;;;;;5065838;28;20039;-85
2022/10/26 07:32:22;;;;;;;11.57;9.68;;;11.30;99.90;;;;;;5066510;28;20075;-84
2022/10/26 07:34:48;;;;;;;11.32;9.45;;;11.30;99.90;;;;;;5063387;28;20079;-85
2022/10/26 07:37:14;;;;;;;15.25;9.80;;;11.30;99.90;;;;;;5060884;28;20033;-87
2022/10/26 07:39:39;;;;;;;10.52;8.65;;;11.40;99.90;;;;;;5063884;28;20039;-86
2022/10/26 07:42:05;;;;;;;10.20;8.60;;;11.40;99.90;;;;;;5067615;28;20113;-82
2022/10/26 07:44:31;;;;;;;14.38;8.32;;;11.40;99.90;;;;;;5065771;28;20049;-80
2022/10/26 07:46:57;;;;;;;12.82;8.63;;;11.50;99.90;;;;;;5065669;28;20045;-82
2022/10/26 07:49:22;;;;;;;15.02;8.38;;;11.50;99.90;;;;;;5065770;28;20047;-85
2022/10/26 07:51:48;;;;;;;9.98;8.13;;;11.60;99.90;;;;;;5056627;28;20049;-84
2022/10/26 07:54:14;;;;;;;11.93;7.40;;;11.70;99.90;;;;;;5065280;28;20045;-78
2022/10/26 07:56:40;;;;;;;16.20;8.10;;;11.70;99.90;;;;;;5046245;28;20528;-84
2022/10/26 07:59:05;;;;;;;12.85;7.28;;;11.80;99.90;;;;;;5048120;28;20064;-87
2022/10/26 08:01:31;;;;;;;9.77;7.47;;;11.80;99.90;;;;;;5085157;28;20044;-87
2022/10/26 08:03:56;;;;;;;10.18;7.30;;;11.90;99.90;;;;;;5088819;28;20036;-88
2022/10/26 08:06:23;;;;;;;11.40;6.88;;;12.00;99.90;;;;;;5072621;28;20505;-82
2022/10/26 08:08:49;;;;;;;11.90;6.88;;;12.10;99.90;;;;;;5068313;28;20084;-85
2022/10/26 08:11:15;;;;;;;10.75;7.10;;;12.10;99.90;;;;;;5066579;28;20052;-85
2022/10/26 08:13:41;;;;;;;13.48;6.82;;;12.20;99.90;;;;;;5065207;28;20043;-83
2022/10/26 08:16:07;;;;;;;14.05;7.15;;;12.20;99.90;;;;;;5065911;28;20135;-82
2022/10/26 08:18:33;;;;;;;13.60;7.18;;;12.30;99.90;;;;;;5049322;28;20040;-79
2022/10/26 08:21:04;;;;;;;10.65;6.40;;;12.30;99.90;;;;;;5048005;28;20085;-79
2022/10/26 08:23:30;;;;;;;10.85;6.80;;;12.30;99.90;;;;;;5050423;28;20048;-87
2022/10/26 08:26:03;;;;;;;9.85;6.80;;;12.30;99.90;;;;;;5062820;28;20066;-88
2022/10/26 08:28:29;;;;;;;12.02;6.90;;;12.30;99.90;;;;;;5066123;28;20102;-90
2022/10/26 08:30:55;;;;;;;11.30;7.00;;;12.30;99.90;;;;;;5066809;28;20047;-81
2022/10/26 08:33:22;;;;;;;14.02;6.68;;;12.30;99.90;;;;;;5047711;28;20386;-82
2022/10/26 08:35:48;;;;;;;13.18;7.55;;;12.20;99.90;;;;;;5043140;28;20044;-83
2022/10/26 08:38:14;;;;;;;13.38;7.20;;;12.30;99.90;;;;;;5049071;28;20048;-83
2022/10/26 08:40:42;;;;;;;10.35;7.55;;;12.30;99.90;;;;;;5066999;28;20056;-82
2022/10/26 08:43:28;;;;;;;12.68;6.72;;;12.40;99.90;;;;;;5044388;28;20480;-84
2022/10/26 08:46:11;;;;;;;10.20;7.22;;;12.40;99.90;;;;;;5046592;28;20933;-84
2022/10/26 08:48:42;;;;;;;10.43;6.85;;;12.60;99.90;;;;;;5052480;28;20041;-79
2022/10/26 08:51:16;;;;;;;11.40;6.65;;;12.70;99.90;;;;;;5065002;28;20052;-79
2022/10/26 08:53:57;;;;;;;12.20;6.68;;;12.80;99.90;;;;;;5065679;28;20047;-81
2022/10/26 08:56:25;;;;;;;12.93;7.13;;;12.90;99.90;;;;;;5068020;28;20048;-84
2022/10/26 08:59:00;;;;;;;10.60;6.40;;;13.10;99.90;;;;;;5067754;28;20040;-81
2022/10/26 09:01:25;;;;;;;10.70;7.00;;;13.20;99.90;;;;;;5046261;28;20492;-84
2022/10/26 09:03:51;;;;;;;11.15;6.40;;;13.30;99.90;;;;;;5067667;28;20090;-88
2022/10/26 09:06:44;;;;;;;11.73;6.40;;;13.30;99.90;;;;;;5046110;28;20068;-81
2022/10/26 09:09:16;;;;;;;11.95;6.30;;;13.40;99.90;;;;;;5066827;28;20556;-80
2022/10/26 09:11:54;;;;;;;10.32;5.90;;;13.40;99.90;;;;;;5066072;28;20067;-81
2022/10/26 09:14:24;;;;;;;9.82;6.47;;;13.50;99.90;;;;;;5065762;28;20040;-80
2022/10/26 09:16:56;;;;;;;11.30;5.78;;;13.40;99.90;;;;;;5063930;28;20052;-80
2022/10/26 09:19:56;;;;;;;12.27;6.43;;;13.50;99.90;;;;;;5065303;28;20049;-80
2022/10/26 09:22:37;;;;;;;11.55;5.75;;;13.60;99.90;;;;;;5019660;28;20061;-80
2022/10/26 09:25:18;;;;;;;11.65;6.18;;;13.60;99.90;;;;;;5051906;28;20839;-85
2022/10/26 09:27:50;;;;;;;10.45;6.07;;;13.70;99.90;;;;;;5051765;28;20447;-85
2022/10/26 09:30:19;;;;;;;9.85;5.75;;;13.80;99.90;;;;;;5052667;28;20048;-81
2022/10/26 09:33:01;;;;;;;9.13;5.75;;;13.80;99.90;;;;;;5051199;28;20053;-84
2022/10/26 09:35:33;;;;;;;9.43;5.78;;;13.90;99.90;;;;;;5067722;28;20048;-81
2022/10/26 09:38:28;;;;;;;7.75;4.97;;;14.00;99.90;;;;;;5039305;28;20128;-79
2022/10/26 09:41:08;;;;;;;9.07;5.45;;;14.00;99.90;;;;;;5068031;28;20052;-81
2022/10/26 09:43:49;;;;;;;10.48;5.20;;;14.10;99.90;;;;;;5067206;28;20093;-79
2022/10/26 09:46:21;;;;;;;8.73;5.50;;;14.20;99.90;;;;;;5051878;28;20087;-81
2022/10/26 09:49:02;;;;;;;10.05;5.30;;;14.30;99.90;;;;;;5067885;28;20060;-83
2022/10/26 09:51:28;;;;;;;7.32;5.07;;;14.30;99.90;;;;;;5047169;28;20075;-82
2022/10/26 09:53:56;;;;;;;9.18;5.50;;;14.30;99.90;;;;;;5053144;28;20045;-82
2022/10/26 09:56:23;;;;;;;11.35;5.00;;;14.50;99.90;;;;;;5068424;28;20067;-84
2022/10/26 09:58:58;;;;;;;7.38;4.47;;;14.50;99.90;;;;;;5069062;28;20438;-85
2022/10/26 10:01:31;;;;;;;27.25;6.55;;;14.60;99.90;;;;;;5070529;28;20048;-83
2022/10/26 10:04:21;;;;;;;5.95;4.35;;;14.70;99.90;;;;;;5067763;28;20568;-85
2022/10/26 10:06:49;;;;;;;8.45;4.70;;;14.80;99.90;;;;;;5051907;28;20488;-86
2022/10/26 10:09:16;;;;;;;11.05;5.00;;;14.90;99.90;;;;;;5067092;28;20502;-84
2022/10/26 10:12:02;;;;;;;10.93;5.03;;;15.00;99.90;;;;;;5068194;28;20045;-80
2022/10/26 10:14:39;;;;;;;9.40;4.50;;;15.10;99.90;;;;;;5066887;28;20054;-83
2022/10/26 10:17:09;;;;;;;10.32;4.35;;;15.20;99.90;;;;;;5062098;28;20045;-79
2022/10/26 10:19:37;;;;;;;7.95;4.63;;;15.30;99.90;;;;;;5048020;28;20079;-80
2022/10/26 10:22:18;;;;;;;7.70;4.22;;;15.40;99.90;;;;;;5068465;28;20068;-77
2022/10/26 10:24:58;;;;;;;10.48;4.70;;;15.50;99.90;;;;;;5048568;28;20932;-79
2022/10/26 10:27:25;;;;;;;7.75;4.30;;;15.60;99.90;;;;;;5048841;28;20040;-79
2022/10/26 10:29:55;;;;;;;8.65;3.80;;;15.70;99.90;;;;;;5068709;28;20041;-77
2022/10/26 10:32:25;;;;;;;7.82;3.85;;;15.70;99.90;;;;;;5066849;28;20041;-78
2022/10/26 10:34:54;;;;;;;7.72;3.90;;;15.80;99.90;;;;;;5068524;28;20106;-78
2022/10/26 10:37:31;;;;;;;8.18;4.07;;;15.90;99.90;;;;;;5068591;28;20036;-75
2022/10/26 10:40:27;;;;;;;6.00;3.77;;;15.90;99.90;;;;;;5067608;28;20052;-82
2022/10/26 10:43:01;;;;;;;7.50;4.10;;;16.00;99.90;;;;;;5061848;28;20357;-81
2022/10/26 10:45:29;;;;;;;6.97;4.07;;;16.00;99.90;;;;;;5068426;28;20472;-76
2022/10/26 10:48:15;;;;;;;8.35;4.05;;;16.00;99.90;;;;;;5050261;28;20053;-76
2022/10/26 10:50:57;;;;;;;6.93;3.78;;;16.10;99.90;;;;;;5052464;28;20039;-76
2022/10/26 10:53:35;;;;;;;6.65;4.28;;;16.20;99.90;;;;;;5050515;28;20109;-77
2022/10/26 10:56:18;;;;;;;6.75;4.15;;;16.30;99.90;;;;;;5068069;28;20592;-77
2022/10/26 10:58:52;;;;;;;10.82;4.38;;;16.40;99.90;;;;;;5049133;28;20545;-77
2022/10/26 11:01:21;;;;;;;6.80;4.07;;;16.40;99.90;;;;;;5045110;28;20052;-77
2022/10/26 11:04:25;;;;;;;8.18;4.20;;;16.40;99.90;;;;;;5066547;28;20043;-81
2022/10/26 11:06:53;;;;;;;10.30;3.70;;;16.60;99.90;;;;;;5046090;28;20055;-75
2022/10/26 11:09:23;;;;;;;7.40;4.15;;;16.60;99.90;;;;;;5062052;28;20124;-80
2022/10/26 11:12:17;;;;;;;5.85;3.80;;;16.70;99.90;;;;;;5045513;28;20049;-75
2022/10/26 11:15:07;;;;;;;11.05;4.10;;;16.70;99.90;;;;;;5065143;28;20047;-74
2022/10/26 11:17:44;;;;;;;6.75;3.70;;;16.80;99.90;;;;;;5060990;28;20068;-81
2022/10/26 11:20:15;;;;;;;9.90;4.50;;;16.80;99.90;;;;;;5048341;28;20051;-75
2022/10/26 11:23:07;;;;;;;12.13;4.25;;;16.90;99.90;;;;;;5042468;28;20472;-73
2022/10/26 11:25:47;;;;;;;8.85;4.40;;;16.90;99.90;;;;;;5047481;28;20064;-75
2022/10/26 11:28:36;;;;;;;9.77;3.75;;;16.90;99.90;;;;;;5068308;28;20081;-77
2022/10/26 11:31:16;;;;;;;9.85;4.10;;;17.10;99.90;;;;;;5062606;28;20044;-76
2022/10/26 11:33:53;;;;;;;8.23;4.10;;;17.10;99.90;;;;;;5066511;28;20064;-75
2022/10/26 11:36:23;;;;;;;7.30;3.92;;;17.20;99.90;;;;;;5066381;28;20124;-77
2022/10/26 11:38:54;;;;;;;11.07;4.18;;;17.20;99.90;;;;;;5064266;28;20395;-77
2022/10/26 11:41:35;;;;;;;9.30;3.88;;;17.10;99.90;;;;;;5066088;28;20436;-79
2022/10/26 11:44:15;;;;;;;6.38;3.90;;;17.20;99.90;;;;;;5064916;28;20052;-73
2022/10/26 11:46:53;;;;;;;12.00;4.50;;;17.20;99.90;;;;;;5047587;28;20486;-74
2022/10/26 11:49:43;;;;;;;8.70;4.00;;;17.20;99.90;;;;;;5060478;28;20491;-75
2022/10/26 11:52:26;;;;;;;9.45;4.50;;;17.30;99.90;;;;;;5041131;28;20133;-75
2022/10/26 11:55:03;;;;;;;6.13;3.60;;;17.30;99.90;;;;;;5067061;28;20044;-75
2022/10/26 11:57:32;;;;;;;8.05;4.00;;;17.40;99.90;;;;;;5062744;28;20052;-75
2022/10/26 12:00:11;;;;;;;7.88;4.13;;;17.40;99.90;;;;;;5050132;28;20048;-75
2022/10/26 12:02:39;;;;;;;8.50;3.53;;;17.50;99.90;;;;;;5065977;28;20043;-75
2022/10/26 12:05:22;;;;;;;6.18;3.30;;;17.50;99.90;;;;;;5065487;28;20052;-74
2022/10/26 12:07:55;;;;;;;9.35;3.67;;;17.50;99.90;;;;;;5066230;28;20051;-74
2022/10/26 12:10:31;;;;;;;7.90;3.22;;;17.60;99.90;;;;;;5045999;28;20044;-75
2022/10/26 12:13:34;;;;;;;7.07;3.85;;;17.60;99.90;;;;;;5046288;28;20083;-74
2022/10/26 12:16:12;;;;;;;8.98;3.58;;;17.60;99.90;;;;;;5061741;28;20088;-74
2022/10/26 12:18:56;;;;;;;8.57;2.90;;;17.60;99.90;;;;;;5064353;28;20053;-77
2022/10/26 12:21:32;;;;;;;9.88;3.50;;;17.70;99.90;;;;;;5067677;28;20041;-74
2022/10/26 12:24:22;;;;;;;12.75;4.00;;;17.80;99.90;;;;;;5068034;28;20112;-74
2022/10/26 12:26:58;;;;;;;15.60;3.75;;;17.80;99.90;;;;;;5062347;28;20037;-75
2022/10/26 12:29:35;;;;;;;6.38;3.40;;;17.80;99.90;;;;;;5044836;28;20051;-74
2022/10/26 12:32:02;;;;;;;11.88;4.40;;;17.90;99.90;;;;;;5066781;28;20499;-73
2022/10/26 12:34:40;;;;;;;12.95;6.00;;;17.80;99.90;;;;;;5067483;28;20044;-75
2022/10/26 12:37:05;;;;;;;10.70;4.03;;;17.90;99.90;;;;;;5065052;28;20052;-73
2022/10/26 12:39:41;;;;;;;10.10;4.47;;;17.80;99.90;;;;;;5065224;28;20097;-75
2022/10/26 12:42:07;;;;;;;13.65;6.03;;;17.80;99.90;;;;;;5069106;28;20051;-75
2022/10/26 12:44:41;;;;;;;12.50;4.45;;;17.90;99.90;;;;;;5061787;28;20493;-75
2022/10/26 12:47:26;;;;;;;8.95;4.55;;;17.90;99.90;;;;;;5067834;28;20051;-75
2022/10/26 12:50:08;;;;;;;11.63;4.72;;;17.90;99.90;;;;;;5064651;28;20048;-75
2022/10/26 12:52:51;;;;;;;8.85;4.10;;;17.90;99.90;;;;;;5062653;28;20067;-74
2022/10/26 12:55:22;;;;;;;7.60;3.78;;;17.90;99.90;;;;;;5045282;28;20076;-75
2022/10/26 12:58:09;;;;;;;8.73;4.32;;;17.90;99.90;;;;;;5046292;28;20128;-75